Time;durP1;ratioP1;P1;durP2;ratioP2;P2;SDS_P1;SDS_P2;PMS_P1;PMS_P2;Temp;Humidity;BMP_temperature;BMP_pressure;BME280_temperature;BME280_humidity;BME280_pressure;Samples;Min_cycle;Max_cycle;Signal;HPM_P1;HPM_P2
2022/06/13 00:01:24;;;;;;;17.95;13.30;;;;;;;14.00;83.36;99129.45;4133620;84;21534;-85
2022/06/13 00:07:29;;;;;;;17.80;12.75;;;;;;;13.91;83.56;99117.27;4123022;85;21052;-84
2022/06/13 00:13:32;;;;;;;12.50;9.30;;;;;;;13.89;84.30;99114.91;4131084;85;21634;-84
2022/06/13 00:19:35;;;;;;;13.45;10.15;;;;;;;13.88;84.63;99110.59;4123461;85;21084;-84
2022/06/13 00:25:37;;;;;;;12.47;9.38;;;;;;;13.84;84.61;99100.16;4122660;85;21021;-84
2022/06/13 00:31:41;;;;;;;10.32;9.20;;;;;;;13.73;84.66;99095.86;4123633;86;21092;-84
2022/06/13 00:37:42;;;;;;;15.83;9.25;;;;;;;13.64;84.89;99087.98;4036796;86;21080;-84
2022/06/13 00:43:46;;;;;;;12.10;9.33;;;;;;;13.56;85.26;99080.14;4131026;85;21124;-84
2022/06/13 00:49:47;;;;;;;10.43;8.03;;;;;;;13.50;85.41;99078.35;4128686;85;21080;-83
2022/06/13 00:55:58;;;;;;;11.15;8.35;;;;;;;13.42;85.88;99076.00;4135387;85;21026;-84
2022/06/13 01:02:00;;;;;;;9.45;6.97;;;;;;;13.53;85.96;99067.17;4154697;83;21036;-85
2022/06/13 01:08:10;;;;;;;15.93;9.08;;;;;;;13.62;86.42;99057.36;4175134;83;22244;-84
2022/06/13 01:14:58;;;;;;;12.68;8.35;;;;;;;13.50;86.10;99052.84;4171784;83;21102;-84
2022/06/13 01:21:35;;;;;;;11.20;9.20;;;;;;;13.39;86.46;99048.69;4171111;83;21737;-84
2022/06/13 01:28:16;;;;;;;9.50;8.00;;;;;;;13.24;86.53;99043.56;4145916;84;21024;-84
2022/06/13 01:34:30;;;;;;;11.50;7.33;;;;;;;13.19;87.23;99029.62;4014114;87;21014;-84
2022/06/13 01:40:51;;;;;;;11.63;7.97;;;;;;;13.26;87.55;99028.84;4079852;85;21058;-84
2022/06/13 01:47:17;;;;;;;14.85;9.23;;;;;;;13.26;87.72;99020.59;4174574;83;21071;-84
2022/06/13 01:53:42;;;;;;;11.75;9.10;;;;;;;13.13;87.38;99008.41;4178030;83;21492;-84
2022/06/13 02:00:24;;;;;;;8.75;7.55;;;;;;;12.92;87.44;99007.75;4164864;83;21441;-84
2022/06/13 02:06:58;;;;;;;11.78;9.53;;;;;;;12.88;88.20;99003.42;4087571;85;21064;-85
2022/06/13 02:13:06;;;;;;;11.53;9.95;;;;;;;12.79;87.88;99001.65;4101925;85;21024;-84
2022/06/13 02:19:45;;;;;;;13.45;9.95;;;;;;;12.62;87.97;98999.07;4104631;84;21020;-84
2022/06/13 02:26:04;;;;;;;16.93;11.57;;;;;;;12.51;88.46;98986.66;4105054;85;21100;-84
2022/06/13 02:32:11;;;;;;;12.80;8.88;;;;;;;12.46;88.82;98973.91;4142088;86;21016;-85
2022/06/13 02:38:20;;;;;;;11.55;9.93;;;;;;;12.45;89.58;98973.11;4122121;86;21609;-84
2022/06/13 02:44:53;;;;;;;14.75;10.15;;;;;;;12.63;89.56;98964.35;4095252;85;20989;-83
2022/06/13 02:51:19;;;;;;;12.33;10.90;;;;;;;12.53;89.32;98962.35;4100486;85;21032;-84
2022/06/13 02:58:10;;;;;;;13.78;9.15;;;;;;;12.52;89.46;98952.55;4109359;85;21084;-85
2022/06/13 03:04:49;;;;;;;13.55;11.75;;;;;;;12.38;89.80;98948.97;4120243;84;21032;-85
2022/06/13 03:11:31;;;;;;;10.38;8.78;;;;;;;12.30;89.82;98954.23;4125573;85;21045;-86
2022/06/13 03:25:41;;;;;;;14.07;8.93;;;;;;;12.64;90.93;98953.55;4080090;87;21008;-87
2022/06/13 03:51:36;;;;;;;16.30;10.13;;;;;;;12.73;91.07;98941.41;3967568;88;21190;-87
2022/06/13 03:57:49;;;;;;;13.90;10.08;;;;;;;12.78;91.64;98929.44;3951047;88;22598;-85
2022/06/13 04:03:50;;;;;;;16.12;11.10;;;;;;;12.86;91.88;98933.77;3906120;88;21224;-86
2022/06/13 04:10:52;;;;;;;13.93;10.65;;;;;;;12.97;92.19;98912.58;4017665;86;22040;-85
2022/06/13 04:17:00;;;;;;;12.30;10.13;;;;;;;13.17;92.82;98912.41;3931608;89;21222;-85
2022/06/13 04:23:42;;;;;;;15.93;10.08;;;;;;;13.43;93.68;98931.25;3915221;89;21597;-85
2022/06/13 04:30:10;;;;;;;15.53;8.88;;;;;;;13.67;93.88;98940.64;3923305;89;21109;-86
2022/06/13 04:43:07;;;;;;;13.28;8.70;;;;;;;14.23;93.25;98906.80;3987343;87;21192;-85
2022/06/13 04:49:35;;;;;;;13.45;9.83;;;;;;;14.45;93.25;98919.92;4032254;87;21518;-85
2022/06/13 04:55:44;;;;;;;15.03;10.03;;;;;;;14.69;93.45;98917.59;4036283;87;21093;-86
2022/06/13 05:01:49;;;;;;;11.53;9.20;;;;;;;14.97;93.60;98917.38;4050471;85;21021;-85
2022/06/13 05:07:51;;;;;;;12.10;8.70;;;;;;;15.27;93.26;98895.47;4142851;84;21592;-86
2022/06/13 05:13:58;;;;;;;12.78;8.15;;;;;;;15.65;92.61;98901.23;4133409;84;21000;-86
2022/06/13 05:20:13;;;;;;;11.40;8.15;;;;;;;16.07;92.43;98895.81;4136116;84;21020;-85
2022/06/13 05:26:27;;;;;;;9.93;6.78;;;;;;;16.35;91.91;98889.91;4142842;84;21023;-85
2022/06/13 05:32:37;;;;;;;10.75;7.40;;;;;;;16.61;91.27;98882.88;4129286;84;21106;-84
2022/06/13 05:38:46;;;;;;;10.80;7.08;;;;;;;16.71;91.25;98877.18;4135775;85;21613;-86
2022/06/13 05:44:47;;;;;;;9.35;7.17;;;;;;;16.92;91.39;98872.71;4127373;84;21017;-86
2022/06/13 05:50:49;;;;;;;10.50;6.33;;;;;;;17.21;91.44;98866.88;4134911;84;21421;-87
2022/06/13 05:56:50;;;;;;;9.35;6.58;;;;;;;17.54;90.72;98867.13;4140355;84;21761;-86
2022/06/13 06:02:52;;;;;;;13.30;6.33;;;;;;;17.90;90.18;98863.22;4135245;84;21115;-86
2022/06/13 06:08:54;;;;;;;9.50;5.55;;;;;;;18.26;89.78;98870.20;4135470;84;21018;-85
2022/06/13 06:14:56;;;;;;;7.10;4.90;;;;;;;18.56;89.19;98872.11;4136290;84;21012;-86
2022/06/13 06:20:58;;;;;;;5.78;4.42;;;;;;;18.71;87.90;98862.23;4129926;84;21051;-86
2022/06/13 06:26:59;;;;;;;4.60;3.60;;;;;;;18.88;87.41;98862.25;4131413;84;21044;-87
2022/06/13 06:33:01;;;;;;;3.98;3.33;;;;;;;19.17;86.98;98863.89;4128723;84;21049;-86
2022/06/13 06:39:02;;;;;;;4.75;3.17;;;;;;;19.51;86.26;98867.61;4129320;84;21761;-87
2022/06/13 06:45:04;;;;;;;2.70;2.22;;;;;;;19.93;85.50;98860.88;4128102;84;22453;-87
2022/06/13 06:51:09;;;;;;;3.90;2.30;;;;;;;20.42;84.20;98861.44;4139908;84;21501;-87
2022/06/13 07:03:31;;;;;;;4.62;2.58;;;;;;;21.24;81.59;98868.92;4133477;84;21084;-86
2022/06/13 07:09:32;;;;;;;6.40;3.72;;;;;;;21.65;80.71;98869.30;4134433;84;21120;-87
2022/06/13 07:15:33;;;;;;;7.78;3.65;;;;;;;22.06;79.83;98862.66;4133811;84;21057;-87
2022/06/13 07:21:35;;;;;;;9.50;4.20;;;;;;;22.59;78.88;98864.23;4136813;84;21123;-87
2022/06/13 07:27:36;;;;;;;7.10;3.00;;;;;;;22.81;77.54;98879.68;4133837;84;22112;-88
2022/06/13 07:33:38;;;;;;;9.45;3.22;;;;;;;22.56;77.25;98882.67;4124143;85;21045;-89
2022/06/13 07:39:39;;;;;;;6.37;3.00;;;;;;;22.82;75.64;98884.02;4127566;85;21041;-87
2022/06/13 07:45:40;;;;;;;14.23;5.60;;;;;;;22.83;74.72;98881.37;4131944;84;21083;-87
2022/06/13 07:51:42;;;;;;;13.40;6.70;;;;;;;23.27;74.12;98876.43;4132507;84;21584;-87
2022/06/13 07:57:45;;;;;;;13.00;6.42;;;;;;;23.66;73.57;98872.75;4130132;84;21557;-88
2022/06/13 08:03:46;;;;;;;6.90;4.62;;;;;;;23.91;73.03;98875.23;4131898;84;21137;-87
2022/06/13 08:09:48;;;;;;;5.33;4.15;;;;;;;24.11;71.16;98870.56;4139573;84;21117;-88
2022/06/13 08:15:50;;;;;;;4.80;3.20;;;;;;;24.26;69.83;98875.64;4139061;84;21057;-86
2022/06/13 08:21:51;;;;;;;7.03;3.35;;;;;;;24.36;68.66;98875.18;4135615;84;21122;-87
2022/06/13 08:27:54;;;;;;;5.12;3.20;;;;;;;24.56;67.18;98869.83;4133274;84;21556;-85
2022/06/13 08:33:56;;;;;;;5.05;3.30;;;;;;;24.72;64.13;98858.91;4133964;84;21060;-87
2022/06/13 08:39:59;;;;;;;6.03;4.08;;;;;;;24.87;65.09;98852.77;4135323;84;21059;-86
2022/06/13 08:46:18;;;;;;;10.80;3.77;;;;;;;24.99;64.07;98827.20;4130883;84;21084;-86
2022/06/13 08:52:27;;;;;;;5.20;3.95;;;;;;;25.20;60.96;98831.75;4109173;84;21072;-86
2022/06/13 08:58:54;;;;;;;6.28;3.70;;;;;;;25.30;62.53;98837.42;4131679;84;21068;-88
2022/06/13 09:05:13;;;;;;;6.78;3.72;;;;;;;25.33;62.03;98843.47;4130711;84;22353;-86
2022/06/13 09:11:48;;;;;;;6.08;3.92;;;;;;;25.20;60.12;98838.11;4125062;83;21056;-86
2022/06/13 09:18:23;;;;;;;4.37;3.00;;;;;;;25.45;60.85;98832.70;4132623;84;21509;-85
2022/06/13 09:24:39;;;;;;;4.33;2.80;;;;;;;25.91;59.73;98840.23;4130365;84;21127;-86
2022/06/13 09:30:58;;;;;;;7.43;2.90;;;;;;;25.94;58.59;98832.88;4138792;84;21079;-87
2022/06/13 09:37:11;;;;;;;4.15;2.87;;;;;;;25.95;54.75;98838.64;4130004;84;21021;-86
2022/06/13 09:43:27;;;;;;;5.03;2.95;;;;;;;25.23;56.31;98845.55;4127809;84;21057;-85
2022/06/13 09:49:43;;;;;;;5.53;3.10;;;;;;;24.94;57.19;98835.63;4135066;84;21096;-86
2022/06/13 09:56:09;;;;;;;7.93;3.10;;;;;;;24.88;56.76;98843.14;4136433;83;21072;-86
2022/06/13 10:02:45;;;;;;;4.00;2.45;;;;;;;24.68;56.82;98853.34;4130568;84;21632;-86
2022/06/13 10:09:18;;;;;;;5.80;2.10;;;;;;;24.39;56.83;98858.84;4136651;84;21095;-87
2022/06/13 10:15:39;;;;;;;3.75;2.08;;;;;;;24.15;56.87;98860.77;4137741;84;21525;-87
2022/06/13 10:22:07;;;;;;;3.45;2.00;;;;;;;24.28;56.86;98862.77;4134780;84;21028;-86
2022/06/13 10:28:31;;;;;;;2.37;1.60;;;;;;;24.52;56.50;98857.25;4135159;83;21631;-86
2022/06/13 10:35:15;;;;;;;2.85;1.90;;;;;;;24.34;56.45;98854.50;4134621;84;21112;-86
2022/06/13 10:41:16;;;;;;;3.00;1.75;;;;;;;24.21;55.56;98861.67;4128651;85;21013;-87
2022/06/13 10:47:29;;;;;;;4.10;2.42;;;;;;;24.13;56.49;98853.45;4135242;84;21151;-86
2022/06/13 10:54:09;;;;;;;4.17;2.27;;;;;;;24.16;56.07;98856.73;4129599;84;21118;-88
2022/06/13 11:00:24;;;;;;;9.03;2.20;;;;;;;24.15;56.60;98843.22;4134299;84;21052;-86
2022/06/13 11:06:46;;;;;;;5.87;1.70;;;;;;;24.08;56.99;98852.71;4126506;84;21188;-86
2022/06/13 11:12:52;;;;;;;3.40;1.77;;;;;;;23.77;56.78;98863.28;4128443;83;21041;-86
2022/06/13 11:25:26;;;;;;;4.55;2.33;;;;;;;23.03;57.30;98859.44;4123988;84;21583;-87
2022/06/13 11:31:27;;;;;;;3.17;2.00;;;;;;;22.80;57.64;98839.03;4123107;84;21044;-86
2022/06/13 11:37:29;;;;;;;4.97;2.35;;;;;;;22.80;58.49;98818.75;4127991;84;21068;-86
2022/06/13 11:43:52;;;;;;;2.85;2.10;;;;;;;22.97;58.82;98832.59;4125893;84;21091;-86
2022/06/13 11:49:57;;;;;;;4.03;2.67;;;;;;;23.11;58.61;98835.58;4084643;84;21024;-87
2022/06/13 11:56:02;;;;;;;4.20;2.20;;;;;;;23.08;59.06;98833.67;4130830;84;21060;-86
2022/06/13 12:02:08;;;;;;;7.33;2.83;;;;;;;23.01;58.66;98828.41;4122372;84;21044;-85
2022/06/13 12:08:24;;;;;;;5.42;2.77;;;;;;;22.80;59.47;98834.09;4163937;83;21016;-86
2022/06/13 12:14:28;;;;;;;10.25;3.02;;;;;;;22.56;60.32;98828.88;4177450;83;21098;-87
2022/06/13 12:20:55;;;;;;;4.07;3.13;;;;;;;22.23;60.82;98818.78;4176334;83;21114;-87
2022/06/13 12:27:08;;;;;;;10.15;3.70;;;;;;;21.76;62.11;98800.08;4176537;83;21618;-87
2022/06/13 12:33:18;;;;;;;7.42;3.70;;;;;;;21.45;63.45;98795.80;4174857;83;21622;-86
2022/06/13 12:39:58;;;;;;;6.40;3.27;;;;;;;21.49;63.81;98803.41;4167547;83;21092;-87
2022/06/13 12:46:54;;;;;;;6.85;2.80;;;;;;;21.58;64.49;98803.47;4172928;84;21443;-87
